createdAt,value
2023-12-11T00:00:52.089Z,4.18
2023-12-11T00:03:18.917Z,4.72
2023-12-11T00:05:45.605Z,3.95
2023-12-11T00:08:12.577Z,5.00
2023-12-11T00:10:39.007Z,5.07
2023-12-11T00:13:05.434Z,5.13
2023-12-11T00:15:31.841Z,4.35
2023-12-11T00:17:59.326Z,4.20
2023-12-11T00:20:25.793Z,4.80
2023-12-11T00:22:52.196Z,4.93
2023-12-11T00:25:20.038Z,5.85
2023-12-11T00:27:46.487Z,4.30
2023-12-11T00:30:13.393Z,5.38
2023-12-11T00:32:39.813Z,4.90
2023-12-11T00:35:06.724Z,4.20
2023-12-11T00:37:33.503Z,5.03
2023-12-11T00:39:59.895Z,6.63
2023-12-11T00:42:26.311Z,5.13
2023-12-11T00:44:52.738Z,6.30
2023-12-11T00:47:19.216Z,5.60
2023-12-11T00:49:45.786Z,5.18
2023-12-11T00:52:12.207Z,5.03
2023-12-11T00:54:38.762Z,5.75
2023-12-11T00:57:05.202Z,5.80
2023-12-11T00:59:31.629Z,5.07
2023-12-11T01:01:58.125Z,4.72
2023-12-11T01:04:24.726Z,5.68
2023-12-11T01:06:51.278Z,5.35
2023-12-11T01:09:17.681Z,4.37
2023-12-11T01:11:44.022Z,5.53
2023-12-11T01:14:10.443Z,5.30
2023-12-11T01:16:36.922Z,5.50
2023-12-11T01:19:03.507Z,5.38
2023-12-11T01:21:29.955Z,4.90
2023-12-11T01:23:58.099Z,5.20
2023-12-11T01:26:25.373Z,4.32
2023-12-11T01:28:51.772Z,4.90
2023-12-11T01:31:18.206Z,4.38
2023-12-11T01:33:44.864Z,6.03
2023-12-11T01:36:11.467Z,4.80
2023-12-11T01:38:38.313Z,5.90
2023-12-11T01:41:04.915Z,5.85
2023-12-11T01:43:31.370Z,5.97
2023-12-11T01:46:05.472Z,5.90
2023-12-11T01:48:32.868Z,5.13
2023-12-11T01:50:59.719Z,5.18
2023-12-11T01:53:28.015Z,5.20
2023-12-11T01:55:54.775Z,5.50
2023-12-11T01:58:22.247Z,4.23
2023-12-11T02:00:49.003Z,5.35
2023-12-11T02:03:15.614Z,4.68
2023-12-11T02:05:43.569Z,5.15
2023-12-11T02:08:10.856Z,4.88
2023-12-11T02:10:37.745Z,5.13
2023-12-11T02:13:05.139Z,4.88
2023-12-11T02:15:58.035Z,6.05
2023-12-11T02:18:24.740Z,4.55
2023-12-11T02:20:51.269Z,5.10
2023-12-11T02:23:23.445Z,4.83
2023-12-11T02:25:54.478Z,4.70
2023-12-11T02:28:20.901Z,4.45
2023-12-11T02:30:51.015Z,4.38
2023-12-11T02:33:18.047Z,5.30
2023-12-11T02:35:44.652Z,4.03
2023-12-11T02:38:11.039Z,4.43
2023-12-11T02:40:37.492Z,5.30
2023-12-11T02:43:04.081Z,4.38
2023-12-11T02:45:30.523Z,5.43
2023-12-11T02:47:57.146Z,4.77
2023-12-11T02:50:23.653Z,5.78
2023-12-11T02:52:50.026Z,4.53
2023-12-11T02:55:16.507Z,5.78
2023-12-11T02:57:42.993Z,4.32
2023-12-11T03:00:09.620Z,4.50
2023-12-11T03:02:38.110Z,4.80
2023-12-11T03:05:04.797Z,4.57
2023-12-11T03:07:31.421Z,6.15
2023-12-11T03:09:58.000Z,4.30
2023-12-11T03:12:24.492Z,3.97
2023-12-11T03:14:50.824Z,4.38
2023-12-11T03:17:17.232Z,4.35
2023-12-11T03:19:43.915Z,4.13
2023-12-11T03:22:10.429Z,4.35
2023-12-11T03:24:37.022Z,4.13
2023-12-11T03:27:03.500Z,4.25
2023-12-11T03:29:29.944Z,4.60
2023-12-11T03:31:56.330Z,4.05
2023-12-11T03:34:23.129Z,4.30
2023-12-11T03:36:49.603Z,4.93
2023-12-11T03:39:16.133Z,3.65
2023-12-11T03:41:43.658Z,4.57
2023-12-11T03:44:09.999Z,4.45
2023-12-11T03:46:36.392Z,4.35
2023-12-11T03:49:03.241Z,4.23
2023-12-11T03:51:29.752Z,5.28
2023-12-11T03:53:56.161Z,3.72
2023-12-11T03:56:22.581Z,4.38
2023-12-11T03:58:49.024Z,3.80
2023-12-11T04:01:15.517Z,4.80
2023-12-11T04:03:42.331Z,5.30
2023-12-11T04:06:08.953Z,5.10
2023-12-11T04:08:40.873Z,5.10
2023-12-11T04:11:09.096Z,4.97
2023-12-11T04:13:35.847Z,4.63
2023-12-11T04:16:02.853Z,4.97
2023-12-11T04:18:29.333Z,5.18
2023-12-11T04:20:55.757Z,4.53
2023-12-11T04:23:22.140Z,4.40
2023-12-11T04:25:48.554Z,5.90
2023-12-11T04:28:15.102Z,4.45
2023-12-11T04:30:41.552Z,4.38
2023-12-11T04:33:08.069Z,4.55
2023-12-11T04:35:34.539Z,5.57
2023-12-11T04:38:00.907Z,5.07
2023-12-11T04:40:27.296Z,4.25
2023-12-11T04:42:53.729Z,4.82
2023-12-11T04:45:20.144Z,4.93
2023-12-11T04:47:46.654Z,4.00
2023-12-11T04:50:13.197Z,5.27
2023-12-11T04:52:39.611Z,3.75
2023-12-11T04:55:06.578Z,4.32
2023-12-11T04:57:33.307Z,4.28
2023-12-11T04:59:59.750Z,3.33
2023-12-11T05:02:26.343Z,4.20
2023-12-11T05:04:52.806Z,3.67
2023-12-11T05:07:19.361Z,4.53
2023-12-11T05:09:45.950Z,4.05
2023-12-11T05:12:13.322Z,4.65
2023-12-11T05:14:39.733Z,5.23
2023-12-11T05:17:06.672Z,4.60
2023-12-11T05:19:34.274Z,4.47
2023-12-11T05:22:00.748Z,4.45
2023-12-11T05:24:27.220Z,6.43
2023-12-11T05:26:57.858Z,4.70
2023-12-11T05:29:25.166Z,3.75
2023-12-11T05:31:51.562Z,4.70
2023-12-11T05:34:17.999Z,4.65
2023-12-11T05:36:44.540Z,4.35
2023-12-11T05:39:10.949Z,3.60
2023-12-11T05:41:37.309Z,4.22
2023-12-11T05:44:03.812Z,4.10
2023-12-11T05:46:30.271Z,3.70
2023-12-11T05:48:56.737Z,4.28
2023-12-11T05:51:23.199Z,4.30
2023-12-11T05:53:49.656Z,3.63
2023-12-11T05:56:16.080Z,3.25
2023-12-11T05:58:42.525Z,3.10
2023-12-11T06:01:09.002Z,4.10
2023-12-11T06:03:35.691Z,3.33
2023-12-11T06:06:02.327Z,3.25
2023-12-11T06:08:29.744Z,3.67
2023-12-11T06:10:57.309Z,3.28
2023-12-11T06:13:23.782Z,2.47
2023-12-11T06:15:50.234Z,2.90
2023-12-11T06:18:16.716Z,3.55
2023-12-11T06:20:43.352Z,3.35
2023-12-11T06:23:09.776Z,3.75
2023-12-11T06:25:36.724Z,3.28
2023-12-11T06:28:03.325Z,3.90
2023-12-11T06:30:29.727Z,3.08
2023-12-11T06:32:56.691Z,2.63
2023-12-11T06:35:23.133Z,4.35
2023-12-11T06:37:49.676Z,4.25
2023-12-11T06:40:16.304Z,2.50
2023-12-11T06:42:42.795Z,2.22
2023-12-11T06:45:11.409Z,2.72
2023-12-11T06:47:37.857Z,2.88
2023-12-11T06:50:05.716Z,2.08
2023-12-11T06:52:32.303Z,2.77
2023-12-11T06:54:58.951Z,2.53
2023-12-11T06:57:25.383Z,2.55
2023-12-11T06:59:51.804Z,2.28
2023-12-11T07:02:18.349Z,2.20
2023-12-11T07:04:45.224Z,2.07
2023-12-11T07:07:11.707Z,2.10
2023-12-11T07:09:38.160Z,3.05
2023-12-11T07:12:05.480Z,2.58
2023-12-11T07:14:31.954Z,2.75
2023-12-11T07:16:58.441Z,2.30
2023-12-11T07:19:25.024Z,3.10
2023-12-11T07:21:53.703Z,2.75
2023-12-11T07:24:20.099Z,2.22
2023-12-11T07:26:47.494Z,2.22
2023-12-11T07:29:14.344Z,2.10
2023-12-11T07:31:42.797Z,1.88
2023-12-11T07:34:09.369Z,1.90
2023-12-11T07:36:35.902Z,2.03
2023-12-11T07:39:02.378Z,2.60
2023-12-11T07:41:28.851Z,2.00
2023-12-11T07:43:55.348Z,2.60
2023-12-11T07:46:22.089Z,2.70
2023-12-11T07:48:49.161Z,2.28
2023-12-11T07:51:21.404Z,2.90
2023-12-11T07:53:48.374Z,2.20
2023-12-11T07:56:21.997Z,2.72
2023-12-11T07:58:48.508Z,2.28
2023-12-11T08:01:15.155Z,2.42
2023-12-11T08:03:41.949Z,2.85
2023-12-11T08:06:08.739Z,2.60
2023-12-11T08:08:36.528Z,2.53
2023-12-11T08:11:03.025Z,3.30
2023-12-11T08:13:29.499Z,2.53
2023-12-11T08:15:56.037Z,2.72
2023-12-11T08:18:22.580Z,2.37
2023-12-11T08:20:51.032Z,2.85
2023-12-11T08:23:19.055Z,2.50
2023-12-11T08:25:46.523Z,2.60
2023-12-11T08:28:12.978Z,2.47
2023-12-11T08:30:39.497Z,3.00
2023-12-11T08:33:06.093Z,3.05
2023-12-11T08:35:34.367Z,2.70
2023-12-11T08:38:00.822Z,2.53
2023-12-11T08:40:27.487Z,3.10
2023-12-11T08:42:55.361Z,2.47
2023-12-11T08:45:21.796Z,2.60
2023-12-11T08:47:48.318Z,2.58
2023-12-11T08:50:15.040Z,2.95
2023-12-11T08:52:43.861Z,3.67
2023-12-11T08:55:10.747Z,2.93
2023-12-11T08:57:37.610Z,2.58
2023-12-11T09:00:05.180Z,2.30
2023-12-11T09:02:31.601Z,1.95
2023-12-11T09:04:58.090Z,2.85
2023-12-11T09:07:24.659Z,2.53
2023-12-11T09:09:51.238Z,2.80
2023-12-11T09:12:27.989Z,3.28
2023-12-11T09:14:59.775Z,2.92
2023-12-11T09:17:26.192Z,3.28
2023-12-11T09:19:55.739Z,2.83
2023-12-11T09:22:23.736Z,3.65
2023-12-11T09:24:50.397Z,3.70
2023-12-11T09:27:16.850Z,3.58
2023-12-11T09:29:43.365Z,3.17
2023-12-11T09:32:09.818Z,2.87
2023-12-11T09:34:36.453Z,2.85
2023-12-11T09:37:03.010Z,3.17
2023-12-11T09:39:29.489Z,2.60
2023-12-11T09:41:56.794Z,2.50
2023-12-11T09:44:23.389Z,2.90
2023-12-11T09:47:02.189Z,2.97
2023-12-11T09:49:29.822Z,2.65
2023-12-11T09:51:56.453Z,2.60
2023-12-11T09:54:23.126Z,3.10
2023-12-11T09:56:49.750Z,2.93
2023-12-11T09:59:16.468Z,2.83
2023-12-11T10:01:43.073Z,2.55
2023-12-11T10:04:09.575Z,2.92
2023-12-11T10:06:36.166Z,2.60
2023-12-11T10:09:02.628Z,2.93
2023-12-11T10:11:29.068Z,2.35
2023-12-11T10:13:55.724Z,3.00
2023-12-11T10:16:33.500Z,1.80
2023-12-11T10:19:01.479Z,1.88
2023-12-11T10:21:39.162Z,2.60
2023-12-11T10:24:06.726Z,1.38
2023-12-11T10:26:34.110Z,1.65
2023-12-11T10:29:21.332Z,1.38
2023-12-11T10:31:51.633Z,1.20
2023-12-11T10:34:18.971Z,1.43
2023-12-11T10:36:53.219Z,1.50
2023-12-11T10:39:20.547Z,1.77
2023-12-11T10:41:47.329Z,2.20
2023-12-11T10:44:42.921Z,1.67
2023-12-11T10:47:14.373Z,2.17
2023-12-11T10:49:41.455Z,2.80
2023-12-11T10:52:08.044Z,2.00
2023-12-11T10:54:38.252Z,2.08
2023-12-11T10:57:08.960Z,1.60
2023-12-11T10:59:35.994Z,1.50
2023-12-11T11:02:04.186Z,1.50
2023-12-11T11:04:37.473Z,1.88
2023-12-11T11:07:26.067Z,1.75
2023-12-11T11:10:35.152Z,1.55
2023-12-11T11:13:08.311Z,2.13
2023-12-11T11:15:34.977Z,2.25
2023-12-11T11:18:02.463Z,1.50
2023-12-11T11:20:33.820Z,2.15
2023-12-11T11:23:20.437Z,1.42
2023-12-11T11:25:50.487Z,2.10
2023-12-11T11:28:43.397Z,1.52
2023-12-11T11:31:23.273Z,1.70
2023-12-11T11:33:54.279Z,1.58
2023-12-11T11:36:22.990Z,1.98
2023-12-11T11:39:00.044Z,2.70
2023-12-11T11:41:27.716Z,1.60
2023-12-11T11:43:59.428Z,1.90
2023-12-11T11:46:27.056Z,1.63
2023-12-11T11:48:54.572Z,1.45
2023-12-11T11:51:21.605Z,1.43
2023-12-11T11:53:55.618Z,1.65
2023-12-11T11:56:22.053Z,1.40
2023-12-11T11:58:48.426Z,1.52
2023-12-11T12:01:15.728Z,1.80
2023-12-11T12:03:43.384Z,1.47
2023-12-11T12:06:14.548Z,1.20
2023-12-11T12:08:44.116Z,1.48
2023-12-11T12:11:10.527Z,1.98
2023-12-11T12:13:37.043Z,1.48
2023-12-11T12:16:04.108Z,1.90
2023-12-11T12:18:30.656Z,1.27
2023-12-11T12:21:06.737Z,1.40
2023-12-11T12:23:34.147Z,1.33
2023-12-11T12:26:03.524Z,2.03
2023-12-11T12:28:30.501Z,1.50
2023-12-11T12:30:58.495Z,1.30
2023-12-11T12:33:26.196Z,1.63
2023-12-11T12:35:52.805Z,1.80
2023-12-11T12:38:19.423Z,2.97
2023-12-11T12:40:45.968Z,1.83
2023-12-11T12:43:13.348Z,1.48
2023-12-11T12:45:40.925Z,1.50
2023-12-11T12:48:08.000Z,2.05
2023-12-11T12:50:34.510Z,1.73
2023-12-11T12:53:11.729Z,1.60
2023-12-11T12:55:39.139Z,1.55
2023-12-11T12:58:05.938Z,1.85
2023-12-11T13:00:32.621Z,1.38
2023-12-11T13:02:59.027Z,1.70
2023-12-11T13:05:42.033Z,1.63
2023-12-11T13:08:08.934Z,1.67
2023-12-11T13:10:35.386Z,1.65
2023-12-11T13:13:08.891Z,1.67
2023-12-11T13:15:35.354Z,1.50
2023-12-11T13:18:01.735Z,1.80
2023-12-11T13:20:30.668Z,1.70
2023-12-11T13:22:57.164Z,1.70
2023-12-11T13:25:23.641Z,1.50
2023-12-11T13:27:50.038Z,1.75
2023-12-11T13:30:16.783Z,2.03
2023-12-11T13:32:43.987Z,1.50
2023-12-11T13:35:11.001Z,1.77
2023-12-11T13:37:37.577Z,1.77
2023-12-11T13:40:07.153Z,1.83
2023-12-11T13:42:33.618Z,1.77
2023-12-11T13:45:00.165Z,1.70
2023-12-11T13:47:26.629Z,1.98
2023-12-11T13:49:53.126Z,1.83
2023-12-11T13:52:19.655Z,1.73
2023-12-11T13:54:46.044Z,2.40
2023-12-11T13:57:12.466Z,2.00
2023-12-11T13:59:38.909Z,1.58
2023-12-11T14:02:06.365Z,1.90
2023-12-11T14:04:32.997Z,1.50
2023-12-11T14:06:59.692Z,1.80
2023-12-11T14:09:26.523Z,2.42
2023-12-11T14:11:55.787Z,2.17
2023-12-11T14:14:22.205Z,1.63
2023-12-11T14:16:50.018Z,1.73
2023-12-11T14:19:16.677Z,1.40
2023-12-11T14:21:43.365Z,1.60
2023-12-11T14:24:09.925Z,1.48
2023-12-11T14:26:43.634Z,1.67
2023-12-11T14:29:14.306Z,1.30
2023-12-11T14:31:41.374Z,1.40
2023-12-11T14:34:08.285Z,1.70
2023-12-11T14:36:34.681Z,1.48
2023-12-11T14:39:01.029Z,1.38
2023-12-11T14:41:27.370Z,1.65
2023-12-11T14:43:53.753Z,1.40
2023-12-11T14:46:20.233Z,1.50
2023-12-11T14:48:46.750Z,1.75
2023-12-11T14:51:13.224Z,1.95
2023-12-11T14:53:39.628Z,1.63
2023-12-11T14:56:06.691Z,1.30
2023-12-11T14:58:33.614Z,1.40
2023-12-11T15:01:00.193Z,1.92
2023-12-11T15:03:27.693Z,1.77
2023-12-11T15:05:54.062Z,2.10
2023-12-11T15:08:20.566Z,1.70
2023-12-11T15:10:46.979Z,1.50
2023-12-11T15:13:13.469Z,1.60
2023-12-11T15:15:40.221Z,1.60
2023-12-11T15:18:06.584Z,1.70
2023-12-11T15:20:33.080Z,1.83
2023-12-11T15:22:59.548Z,1.38
2023-12-11T15:25:28.864Z,2.17
2023-12-11T15:27:55.469Z,1.48
2023-12-11T15:30:22.741Z,1.98
2023-12-11T15:32:50.568Z,2.10
2023-12-11T15:35:17.681Z,1.92
2023-12-11T15:37:44.029Z,1.60
2023-12-11T15:40:13.640Z,1.45
2023-12-11T15:42:40.132Z,1.48
2023-12-11T15:45:06.996Z,1.37
2023-12-11T15:47:59.452Z,1.30
2023-12-11T15:50:20.516Z,1.65
2023-12-11T15:52:46.954Z,1.92
2023-12-11T15:55:13.408Z,2.00
2023-12-11T15:57:42.089Z,1.53
2023-12-11T16:00:08.846Z,1.80
2023-12-11T16:02:35.234Z,1.42
2023-12-11T16:05:01.540Z,1.30
2023-12-11T16:07:28.138Z,1.85
2023-12-11T16:09:54.963Z,1.70
2023-12-11T16:12:21.409Z,2.38
2023-12-11T16:14:47.979Z,2.22
2023-12-11T16:17:14.357Z,1.85
2023-12-11T16:19:40.779Z,2.55
2023-12-11T16:22:07.209Z,2.43
2023-12-11T16:24:34.133Z,2.15
2023-12-11T16:27:00.512Z,1.88
2023-12-11T16:29:26.883Z,1.85
2023-12-11T16:31:54.249Z,1.77
2023-12-11T16:34:21.483Z,1.70
2023-12-11T16:36:50.895Z,2.10
2023-12-11T16:39:17.376Z,2.53
2023-12-11T16:41:43.774Z,2.33
2023-12-11T16:44:10.147Z,2.13
2023-12-11T16:46:36.685Z,2.00
2023-12-11T16:49:03.190Z,2.95
2023-12-11T16:51:29.582Z,2.08
2023-12-11T16:53:56.696Z,3.05
2023-12-11T16:56:23.087Z,2.63
2023-12-11T16:58:49.430Z,2.03
2023-12-11T17:01:15.911Z,2.13
2023-12-11T17:03:42.518Z,2.28
2023-12-11T17:06:15.036Z,2.10
2023-12-11T17:08:41.554Z,2.33
2023-12-11T17:11:08.040Z,2.27
2023-12-11T17:13:34.595Z,2.55
2023-12-11T17:16:01.128Z,2.28
2023-12-11T17:18:27.638Z,2.20
2023-12-11T17:20:54.085Z,2.42
2023-12-11T17:23:20.637Z,2.20
2023-12-11T17:25:48.595Z,2.53
2023-12-11T17:28:15.086Z,2.70
2023-12-11T17:30:41.635Z,2.63
2023-12-11T17:33:09.390Z,2.95
2023-12-11T17:35:36.529Z,2.60
2023-12-11T17:38:02.954Z,2.50
2023-12-11T17:40:29.473Z,2.90
2023-12-11T17:42:55.932Z,3.00
2023-12-11T17:45:25.744Z,2.65
2023-12-11T17:47:53.123Z,2.50
2023-12-11T17:50:19.760Z,2.83
2023-12-11T17:52:46.185Z,2.72
2023-12-11T17:55:12.982Z,2.05
2023-12-11T17:57:39.472Z,2.55
2023-12-11T18:00:06.478Z,2.30
2023-12-11T18:02:32.815Z,2.38
2023-12-11T18:04:59.273Z,2.42
2023-12-11T18:07:25.954Z,2.53
2023-12-11T18:09:52.830Z,2.53
2023-12-11T18:12:19.185Z,2.80
2023-12-11T18:14:45.580Z,2.40
2023-12-11T18:17:11.916Z,2.03
2023-12-11T18:19:38.449Z,2.55
2023-12-11T18:22:07.146Z,3.13
2023-12-11T18:24:34.331Z,2.40
2023-12-11T18:27:01.393Z,2.25
2023-12-11T18:29:27.959Z,2.80
2023-12-11T18:31:54.343Z,2.60
2023-12-11T18:34:20.745Z,3.28
2023-12-11T18:36:47.116Z,2.63
2023-12-11T18:39:14.028Z,3.10
2023-12-11T18:41:41.044Z,3.30
2023-12-11T18:44:08.462Z,3.00
2023-12-11T18:46:34.872Z,3.22
2023-12-11T18:49:01.467Z,2.47
2023-12-11T18:51:33.036Z,2.63
2023-12-11T18:53:59.443Z,2.42
2023-12-11T18:56:26.542Z,2.85
2023-12-11T18:58:53.421Z,2.72
2023-12-11T19:01:20.277Z,2.60
2023-12-11T19:03:46.873Z,2.47
2023-12-11T19:06:13.382Z,2.83
2023-12-11T19:08:39.778Z,3.63
2023-12-11T19:11:06.274Z,3.22
2023-12-11T19:13:33.308Z,3.00
2023-12-11T19:15:59.774Z,3.15
2023-12-11T19:18:28.087Z,2.72
2023-12-11T19:20:54.617Z,2.55
2023-12-11T19:23:21.562Z,3.35
2023-12-11T19:25:47.937Z,2.80
2023-12-11T19:28:14.302Z,4.50
2023-12-11T19:30:40.779Z,4.53
2023-12-11T19:33:07.386Z,5.10
2023-12-11T19:35:33.842Z,4.50
2023-12-11T19:38:00.149Z,4.70
2023-12-11T19:40:26.544Z,4.25
2023-12-11T19:42:52.901Z,4.10
2023-12-11T19:45:19.298Z,3.75
2023-12-11T19:47:45.815Z,3.45
2023-12-11T19:50:12.481Z,4.30
2023-12-11T19:52:38.920Z,4.70
2023-12-11T19:55:05.807Z,5.43
2023-12-11T19:57:32.565Z,4.95
2023-12-11T19:59:59.068Z,5.32
2023-12-11T20:02:25.516Z,5.10
2023-12-11T20:04:51.825Z,5.05
2023-12-11T20:07:18.257Z,5.38
2023-12-11T20:09:44.680Z,4.72
2023-12-11T20:12:14.450Z,4.95
2023-12-11T20:14:41.549Z,5.27
2023-12-11T20:17:09.553Z,5.05
2023-12-11T20:19:36.080Z,5.05
2023-12-11T20:22:02.969Z,4.68
2023-12-11T20:24:30.498Z,5.15
2023-12-11T20:26:56.914Z,4.50
2023-12-11T20:29:23.286Z,4.55
2023-12-11T20:31:52.630Z,4.80
2023-12-11T20:34:19.191Z,4.40
2023-12-11T20:36:45.710Z,4.88
2023-12-11T20:39:12.382Z,5.10
2023-12-11T20:41:38.720Z,4.88
2023-12-11T20:44:05.166Z,5.35
2023-12-11T20:46:31.758Z,4.95
2023-12-11T20:48:58.788Z,4.50
2023-12-11T20:51:25.480Z,4.97
2023-12-11T20:53:52.131Z,4.93
2023-12-11T20:56:30.754Z,5.25
2023-12-11T20:58:58.979Z,5.15
2023-12-11T21:01:36.326Z,4.93
2023-12-11T21:04:05.743Z,4.53
2023-12-11T21:06:33.307Z,4.40
2023-12-11T21:08:59.919Z,4.80
2023-12-11T21:11:27.483Z,5.05
2023-12-11T21:13:54.197Z,4.88
2023-12-11T21:16:21.639Z,5.07
2023-12-11T21:18:48.607Z,4.70
2023-12-11T21:21:16.555Z,4.57
2023-12-11T21:23:43.063Z,4.53
2023-12-11T21:26:20.636Z,5.03
2023-12-11T21:28:47.727Z,5.10
2023-12-11T21:31:25.096Z,4.95
2023-12-11T21:33:52.267Z,5.45
2023-12-11T21:36:21.210Z,5.43
2023-12-11T21:38:47.703Z,4.65
2023-12-11T21:41:14.774Z,4.87
2023-12-11T21:43:42.785Z,4.80
2023-12-11T21:46:09.824Z,4.53
2023-12-11T21:48:36.461Z,4.15
2023-12-11T21:51:03.077Z,4.05
2023-12-11T21:53:29.932Z,4.13
2023-12-11T21:55:56.329Z,4.20
2023-12-11T21:58:22.751Z,4.10
2023-12-11T22:00:49.291Z,4.00
2023-12-11T22:03:15.794Z,3.58
2023-12-11T22:05:42.385Z,3.30
2023-12-11T22:08:08.903Z,3.75
2023-12-11T22:10:35.318Z,3.17
2023-12-11T22:13:01.724Z,3.30
2023-12-11T22:15:28.752Z,3.10
2023-12-11T22:17:55.253Z,3.30
2023-12-11T22:20:22.124Z,3.70
2023-12-11T22:22:48.506Z,3.50
2023-12-11T22:25:14.835Z,3.33
2023-12-11T22:27:43.718Z,3.63
2023-12-11T22:30:10.423Z,3.07
2023-12-11T22:32:36.832Z,3.63
2023-12-11T22:35:03.352Z,3.33
2023-12-11T22:37:30.970Z,3.55
2023-12-11T22:39:57.618Z,3.35
2023-12-11T22:42:24.153Z,3.17
2023-12-11T22:44:50.708Z,3.05
2023-12-11T22:47:17.182Z,2.92
2023-12-11T22:49:44.592Z,2.63
2023-12-11T22:52:11.020Z,2.92
2023-12-11T22:54:37.395Z,2.30
2023-12-11T22:57:04.023Z,3.00
2023-12-11T22:59:30.424Z,3.05
2023-12-11T23:01:56.821Z,2.75
2023-12-11T23:04:23.299Z,2.47
2023-12-11T23:06:49.747Z,2.47
2023-12-11T23:09:16.222Z,2.80
2023-12-11T23:11:42.943Z,2.47
2023-12-11T23:14:09.817Z,2.22
2023-12-11T23:16:36.218Z,2.10
2023-12-11T23:19:02.783Z,2.67
2023-12-11T23:21:31.308Z,2.47
2023-12-11T23:23:58.225Z,2.80
2023-12-11T23:26:25.073Z,2.70
2023-12-11T23:28:53.064Z,2.63
2023-12-11T23:31:19.434Z,2.77
2023-12-11T23:33:46.118Z,2.50
2023-12-11T23:36:12.582Z,2.97
2023-12-11T23:38:39.557Z,2.88
2023-12-11T23:41:06.255Z,2.05
2023-12-11T23:43:32.663Z,2.30
2023-12-11T23:45:59.206Z,2.30
2023-12-11T23:48:25.651Z,2.20
2023-12-11T23:50:52.331Z,2.10
2023-12-11T23:53:18.785Z,2.15
2023-12-11T23:55:46.641Z,2.10
2023-12-11T23:58:13.240Z,2.00
